createdAt,value
2018-02-09T00:00:18.700Z,110.77
2018-02-09T00:02:47.013Z,117.37
2018-02-09T00:05:15.253Z,126.20
2018-02-09T00:07:43.460Z,124.33
2018-02-09T00:10:11.816Z,122.60
2018-02-09T00:12:41.187Z,127.60
2018-02-09T00:15:09.392Z,120.27
2018-02-09T00:17:38.480Z,121.13
2018-02-09T00:20:07.482Z,123.00
2018-02-09T00:22:49.432Z,121.23
2018-02-09T00:25:17.668Z,109.90
2018-02-09T00:27:46.736Z,121.97
2018-02-09T00:30:15.089Z,126.97
2018-02-09T00:32:43.299Z,116.90
2018-02-09T00:35:12.293Z,120.40
2018-02-09T00:37:41.368Z,138.07
2018-02-09T00:40:09.635Z,118.10
2018-02-09T00:42:37.957Z,121.83
2018-02-09T00:45:06.977Z,133.37
2018-02-09T00:47:35.246Z,126.43
2018-02-09T00:50:03.526Z,122.70
2018-02-09T00:52:31.776Z,126.93
2018-02-09T00:55:00.760Z,124.70
2018-02-09T00:57:29.783Z,129.90
2018-02-09T00:59:58.097Z,133.70
2018-02-09T01:02:26.322Z,126.03
2018-02-09T01:04:55.393Z,128.70
2018-02-09T01:07:23.664Z,132.13
2018-02-09T01:09:52.064Z,129.63
2018-02-09T01:12:21.076Z,141.73
2018-02-09T01:14:49.368Z,132.13
2018-02-09T01:17:17.732Z,142.70
2018-02-09T01:19:45.945Z,133.97
2018-02-09T01:22:14.270Z,118.10
2018-02-09T01:24:43.368Z,127.10
2018-02-09T01:27:11.578Z,125.03
2018-02-09T01:29:39.920Z,145.30
2018-02-09T01:32:08.885Z,134.40
2018-02-09T01:34:37.101Z,129.93
2018-02-09T01:37:05.345Z,124.47
2018-02-09T01:39:34.347Z,130.27
2018-02-09T01:42:03.328Z,129.67
2018-02-09T01:44:31.624Z,127.03
2018-02-09T01:47:00.616Z,141.73
2018-02-09T01:49:29.587Z,121.17
2018-02-09T01:51:57.931Z,124.07
2018-02-09T01:54:26.904Z,126.07
2018-02-09T01:56:55.504Z,116.13
2018-02-09T01:59:23.808Z,113.83
2018-02-09T02:01:52.068Z,130.30
2018-02-09T02:04:20.291Z,127.00
2018-02-09T02:06:49.340Z,125.00
2018-02-09T02:09:17.551Z,114.77
2018-02-09T02:11:46.524Z,127.70
2018-02-09T02:14:14.842Z,124.80
2018-02-09T02:16:43.821Z,120.10
2018-02-09T02:19:12.825Z,126.70
2018-02-09T02:21:41.339Z,134.40
2018-02-09T02:24:09.590Z,126.80
2018-02-09T02:26:39.117Z,112.63
2018-02-09T02:29:07.762Z,118.83
2018-02-09T02:31:35.965Z,119.73
2018-02-09T02:34:04.210Z,116.03
2018-02-09T02:36:32.759Z,111.23
2018-02-09T02:39:00.939Z,125.60
2018-02-09T02:41:29.172Z,132.83
2018-02-09T02:43:57.652Z,128.43
2018-02-09T02:46:25.906Z,118.97
2018-02-09T02:48:54.973Z,128.90
2018-02-09T02:51:24.423Z,123.10
2018-02-09T02:53:52.648Z,124.30
2018-02-09T02:56:20.861Z,117.43
2018-02-09T02:58:49.191Z,112.77
2018-02-09T03:01:17.412Z,134.10
2018-02-09T03:03:45.625Z,118.73
2018-02-09T03:06:13.876Z,126.80
2018-02-09T03:08:42.389Z,128.93
2018-02-09T03:11:10.597Z,119.97
2018-02-09T03:13:38.872Z,138.50
2018-02-09T03:16:07.865Z,130.03
2018-02-09T03:18:36.889Z,134.47
2018-02-09T03:21:05.218Z,128.53
2018-02-09T03:23:33.513Z,133.80
2018-02-09T03:26:02.512Z,125.27
2018-02-09T03:28:31.516Z,126.07
2018-02-09T03:31:00.531Z,123.83
2018-02-09T03:33:28.768Z,127.10
2018-02-09T03:35:57.097Z,123.67
2018-02-09T03:38:26.089Z,126.27
2018-02-09T03:40:54.567Z,131.00
2018-02-09T03:43:22.873Z,134.07
2018-02-09T03:45:51.138Z,121.83
2018-02-09T03:48:19.464Z,122.77
2018-02-09T03:50:48.509Z,140.50
2018-02-09T03:53:16.734Z,130.83
2018-02-09T03:55:45.750Z,120.17
2018-02-09T03:58:14.024Z,131.53
2018-02-09T04:00:42.292Z,139.97
2018-02-09T04:03:11.289Z,124.73
2018-02-09T04:05:39.544Z,133.80
2018-02-09T04:08:08.520Z,135.10
2018-02-09T04:10:36.812Z,127.37
2018-02-09T04:13:05.841Z,135.13
2018-02-09T04:15:34.172Z,129.83
2018-02-09T04:18:02.466Z,134.83
2018-02-09T04:20:30.888Z,132.70
2018-02-09T04:22:59.882Z,131.87
2018-02-09T04:25:28.092Z,122.27
2018-02-09T04:27:56.327Z,126.10
2018-02-09T04:30:25.289Z,127.33
2018-02-09T04:32:53.740Z,121.03
2018-02-09T04:35:22.135Z,124.47
2018-02-09T04:37:51.112Z,129.03
2018-02-09T04:40:19.402Z,125.80
2018-02-09T04:42:48.444Z,127.60
2018-02-09T04:45:17.496Z,126.23
2018-02-09T04:47:46.508Z,121.27
2018-02-09T04:50:14.736Z,124.67
2018-02-09T04:52:43.009Z,124.57
2018-02-09T04:55:11.243Z,122.13
2018-02-09T04:57:39.475Z,129.43
2018-02-09T05:00:07.700Z,129.67
2018-02-09T05:02:36.033Z,126.80
2018-02-09T05:05:04.309Z,121.87
2018-02-09T05:07:32.527Z,131.83
2018-02-09T05:10:01.572Z,131.87
2018-02-09T05:12:29.860Z,116.50
2018-02-09T05:14:58.089Z,125.17
2018-02-09T05:17:26.299Z,122.67
2018-02-09T05:19:54.569Z,130.83
2018-02-09T05:22:22.808Z,127.03
2018-02-09T05:24:51.033Z,128.73
2018-02-09T05:27:19.305Z,123.53
2018-02-09T05:29:47.518Z,122.17
2018-02-09T05:32:15.752Z,138.70
2018-02-09T05:34:44.111Z,130.50
2018-02-09T05:37:12.370Z,122.20
2018-02-09T05:39:40.593Z,122.27
2018-02-09T05:42:09.605Z,123.90
2018-02-09T05:44:37.850Z,113.60
2018-02-09T05:47:06.106Z,121.30
2018-02-09T05:49:34.487Z,121.43
2018-02-09T05:52:02.883Z,121.30
2018-02-09T05:54:31.077Z,112.13
2018-02-09T05:57:00.125Z,126.37
2018-02-09T05:59:28.458Z,120.20
2018-02-09T06:01:56.761Z,130.47
2018-02-09T06:04:25.073Z,133.27
2018-02-09T06:06:53.369Z,114.53
2018-02-09T06:09:21.549Z,105.30
2018-02-09T06:11:50.599Z,120.97
2018-02-09T06:14:18.912Z,117.83
2018-02-09T06:16:47.120Z,108.50
2018-02-09T06:19:15.428Z,118.20
2018-02-09T06:21:43.874Z,123.40
2018-02-09T06:24:13.042Z,125.17
2018-02-09T06:26:41.836Z,127.77
2018-02-09T06:29:10.137Z,114.77
2018-02-09T06:31:39.241Z,114.23
2018-02-09T06:34:07.773Z,127.73
2018-02-09T06:36:36.082Z,126.43
2018-02-09T06:39:05.322Z,119.57
2018-02-09T06:41:35.102Z,118.07
2018-02-09T06:44:04.782Z,133.50
2018-02-09T06:46:32.997Z,138.37
2018-02-09T06:49:01.264Z,114.47
2018-02-09T06:51:29.493Z,126.03
2018-02-09T06:53:57.906Z,110.23
2018-02-09T06:56:27.065Z,125.50
2018-02-09T06:58:55.543Z,127.13
2018-02-09T07:01:23.811Z,125.87
2018-02-09T07:03:52.208Z,120.47
2018-02-09T07:06:20.461Z,116.83
2018-02-09T07:08:48.938Z,106.17
2018-02-09T07:11:17.285Z,111.73
2018-02-09T07:13:45.567Z,122.00
2018-02-09T07:16:13.796Z,127.37
2018-02-09T07:18:42.166Z,117.90
2018-02-09T07:21:10.401Z,118.70
2018-02-09T07:23:38.728Z,127.83
2018-02-09T07:26:07.509Z,121.97
2018-02-09T07:28:36.581Z,125.97
2018-02-09T07:31:04.860Z,110.53
2018-02-09T07:33:33.095Z,119.00
2018-02-09T07:36:02.151Z,132.13
2018-02-09T07:38:30.452Z,112.53
2018-02-09T07:40:58.712Z,121.07
2018-02-09T07:43:26.984Z,118.67
2018-02-09T07:45:55.321Z,118.53
2018-02-09T07:48:23.548Z,124.77
2018-02-09T07:50:51.772Z,137.77
2018-02-09T07:53:20.077Z,117.33
2018-02-09T07:55:48.405Z,126.20
2018-02-09T07:58:17.420Z,122.07
2018-02-09T08:00:45.624Z,124.80
2018-02-09T08:03:13.910Z,120.60
2018-02-09T08:05:42.139Z,132.27
2018-02-09T08:08:10.393Z,122.60
2018-02-09T08:10:39.428Z,118.13
2018-02-09T08:13:07.682Z,133.87
2018-02-09T08:15:35.923Z,123.67
2018-02-09T08:18:04.244Z,127.27
2018-02-09T08:20:32.461Z,128.63
2018-02-09T08:23:00.716Z,125.80
2018-02-09T08:25:28.980Z,111.00
2018-02-09T08:27:57.234Z,119.27
2018-02-09T08:30:25.456Z,109.53
2018-02-09T08:32:53.847Z,119.17
2018-02-09T08:35:22.068Z,113.93
2018-02-09T08:37:50.460Z,112.03
2018-02-09T08:40:18.838Z,111.50
2018-02-09T08:42:47.008Z,109.50
2018-02-09T08:45:15.254Z,115.93
2018-02-09T08:47:44.298Z,110.77
2018-02-09T08:50:12.559Z,111.17
2018-02-09T08:52:40.776Z,123.20
2018-02-09T08:55:09.021Z,113.57
2018-02-09T08:57:37.293Z,113.10
2018-02-09T09:00:05.526Z,119.53
2018-02-09T09:02:34.520Z,128.17
2018-02-09T09:05:03.555Z,106.13
2018-02-09T09:07:32.593Z,118.43
2018-02-09T09:10:00.952Z,117.70
2018-02-09T09:12:29.174Z,111.93
2018-02-09T09:14:57.489Z,116.43
2018-02-09T09:17:25.840Z,107.83
2018-02-09T09:19:54.284Z,122.83
2018-02-09T09:22:22.501Z,117.73
2018-02-09T09:24:50.896Z,136.30
2018-02-09T09:27:19.285Z,105.70
2018-02-09T09:29:47.578Z,113.97
2018-02-09T09:32:15.909Z,120.13
2018-02-09T09:34:44.170Z,120.43
2018-02-09T09:37:13.208Z,130.47
2018-02-09T09:39:42.785Z,113.03
2018-02-09T09:42:11.011Z,122.23
2018-02-09T09:44:39.392Z,131.20
2018-02-09T09:47:07.640Z,137.97
2018-02-09T09:49:35.909Z,128.47
2018-02-09T09:52:04.116Z,126.23
2018-02-09T09:54:32.437Z,137.87
2018-02-09T09:57:00.793Z,121.30
2018-02-09T09:59:29.021Z,130.87
2018-02-09T10:01:57.295Z,115.70
2018-02-09T10:04:25.545Z,112.67
2018-02-09T10:06:53.776Z,126.20
2018-02-09T10:09:22.020Z,118.30
2018-02-09T10:11:50.276Z,122.07
2018-02-09T10:14:18.492Z,123.10
2018-02-09T10:16:47.993Z,128.27
2018-02-09T10:19:16.230Z,131.57
2018-02-09T10:21:45.212Z,132.93
2018-02-09T10:24:14.212Z,139.73
2018-02-09T10:26:42.464Z,127.67
2018-02-09T10:29:10.688Z,130.03
2018-02-09T10:31:38.984Z,114.20
2018-02-09T10:34:07.240Z,133.53
2018-02-09T10:36:35.467Z,108.00
2018-02-09T10:39:03.715Z,122.83
2018-02-09T10:41:32.029Z,134.20
2018-02-09T10:44:00.300Z,109.80
2018-02-09T10:46:28.580Z,106.33
2018-02-09T10:48:57.580Z,112.60
2018-02-09T10:51:26.727Z,115.43
2018-02-09T10:53:55.245Z,125.07
2018-02-09T10:56:23.540Z,119.87
2018-02-09T10:58:52.604Z,117.43
2018-02-09T11:01:26.620Z,105.93
2018-02-09T11:03:55.147Z,112.63
2018-02-09T11:06:23.484Z,123.77
2018-02-09T11:08:51.780Z,108.87
2018-02-09T11:11:23.267Z,111.20
2018-02-09T11:13:51.580Z,109.40
2018-02-09T11:16:19.992Z,109.33
2018-02-09T11:18:49.182Z,104.53
2018-02-09T11:21:17.752Z,108.73
2018-02-09T11:23:46.080Z,102.47
2018-02-09T11:26:14.327Z,107.00
2018-02-09T11:28:43.502Z,97.20
2018-02-09T11:31:11.869Z,106.13
2018-02-09T11:33:40.792Z,114.83
2018-02-09T11:36:09.804Z,102.30
2018-02-09T11:38:38.879Z,102.73
2018-02-09T11:41:07.899Z,102.27
2018-02-09T11:43:36.163Z,100.97
2018-02-09T11:46:04.498Z,95.93
2018-02-09T11:48:32.720Z,105.53
2018-02-09T11:51:01.689Z,102.13
2018-02-09T11:53:29.941Z,103.33
2018-02-09T11:55:58.281Z,95.53
2018-02-09T11:58:27.278Z,92.57
2018-02-09T12:00:55.737Z,92.13
2018-02-09T12:03:23.991Z,93.90
2018-02-09T12:05:52.236Z,91.60
2018-02-09T12:08:20.461Z,77.47
2018-02-09T12:10:53.304Z,86.73
2018-02-09T12:13:22.749Z,83.10
2018-02-09T12:15:51.212Z,89.40
2018-02-09T12:18:19.466Z,85.93
2018-02-09T12:20:47.856Z,86.50
2018-02-09T12:23:16.115Z,96.00
2018-02-09T12:25:44.325Z,79.53
2018-02-09T12:28:12.717Z,83.30
2018-02-09T12:30:41.204Z,76.90
2018-02-09T12:33:09.440Z,80.53
2018-02-09T12:35:38.496Z,86.63
2018-02-09T12:38:06.904Z,81.07
2018-02-09T12:40:35.818Z,80.40
2018-02-09T12:43:04.169Z,81.50
2018-02-09T12:45:32.491Z,80.27
2018-02-09T12:48:00.772Z,72.33
2018-02-09T12:50:29.097Z,73.60
2018-02-09T12:52:57.312Z,80.30
2018-02-09T12:55:25.554Z,75.23
2018-02-09T12:57:53.864Z,67.93
2018-02-09T13:00:22.098Z,70.90
2018-02-09T13:02:50.325Z,73.33
2018-02-09T13:05:18.660Z,65.77
2018-02-09T13:07:46.907Z,66.93
2018-02-09T13:10:15.116Z,72.83
2018-02-09T13:12:55.490Z,65.93
2018-02-09T13:15:23.972Z,69.23
2018-02-09T13:17:52.164Z,73.53
2018-02-09T13:20:20.406Z,73.13
2018-02-09T13:23:01.176Z,72.33
2018-02-09T13:25:30.204Z,65.17
2018-02-09T13:27:58.424Z,62.90
2018-02-09T13:30:26.703Z,69.73
2018-02-09T13:33:07.887Z,63.00
2018-02-09T13:35:36.093Z,62.70
2018-02-09T13:38:05.180Z,70.87
2018-02-09T13:40:34.168Z,69.20
2018-02-09T13:43:03.168Z,63.53
2018-02-09T13:45:32.190Z,62.33
2018-02-09T13:48:03.253Z,62.30
2018-02-09T13:50:32.380Z,58.30
2018-02-09T13:53:00.759Z,58.43
2018-02-09T13:55:29.025Z,62.90
2018-02-09T13:57:57.334Z,64.10
2018-02-09T14:00:25.506Z,60.93
2018-02-09T14:02:54.628Z,60.80
2018-02-09T14:05:23.697Z,63.23
2018-02-09T14:07:52.662Z,59.40
2018-02-09T14:10:20.934Z,56.47
2018-02-09T14:12:49.136Z,63.23
2018-02-09T14:15:18.220Z,60.13
2018-02-09T14:17:47.237Z,58.40
2018-02-09T14:20:16.266Z,60.37
2018-02-09T14:22:45.263Z,67.43
2018-02-09T14:25:13.512Z,61.43
2018-02-09T14:27:41.816Z,58.50
2018-02-09T14:30:10.031Z,55.63
2018-02-09T14:32:38.419Z,51.73
2018-02-09T14:37:44.507Z,58.60
2018-02-09T14:40:12.896Z,50.63
2018-02-09T14:42:41.097Z,59.93
2018-02-09T14:45:09.372Z,61.73
2018-02-09T14:47:37.576Z,59.20
2018-02-09T14:50:05.851Z,52.60
2018-02-09T14:52:34.148Z,59.80
2018-02-09T14:55:03.136Z,58.53
2018-02-09T14:57:31.340Z,53.60
2018-02-09T14:59:59.604Z,64.77
2018-02-09T15:02:28.651Z,57.27
2018-02-09T15:04:57.028Z,56.00
2018-02-09T15:07:25.240Z,57.60
2018-02-09T15:09:54.251Z,53.67
2018-02-09T15:12:23.214Z,54.43
2018-02-09T15:14:51.709Z,58.40
2018-02-09T15:17:20.913Z,53.63
2018-02-09T15:19:49.985Z,52.30
2018-02-09T15:22:18.430Z,55.83
2018-02-09T15:24:46.640Z,63.07
2018-02-09T15:29:39.608Z,61.57
2018-02-09T15:32:07.847Z,49.03
2018-02-09T15:34:36.155Z,51.93
2018-02-09T15:37:04.440Z,60.70
2018-02-09T15:39:32.659Z,62.70
2018-02-09T15:42:00.877Z,59.33
2018-02-09T15:44:29.189Z,59.10
2018-02-09T15:46:58.439Z,59.93
2018-02-09T15:49:26.738Z,62.07
2018-02-09T15:51:56.440Z,52.83
2018-02-09T15:54:25.925Z,59.53
2018-02-09T15:56:54.192Z,58.47
2018-02-09T15:59:22.416Z,59.37
2018-02-09T16:01:50.655Z,54.03
2018-02-09T16:04:18.999Z,62.03
2018-02-09T16:06:47.399Z,48.70
2018-02-09T16:09:15.612Z,51.63
2018-02-09T16:11:43.857Z,54.43
2018-02-09T16:14:12.084Z,53.83
2018-02-09T16:16:41.130Z,52.97
2018-02-09T16:19:10.189Z,52.67
2018-02-09T16:21:39.199Z,55.87
2018-02-09T16:24:07.493Z,53.87
2018-02-09T16:26:35.692Z,59.07
2018-02-09T16:29:03.966Z,49.73
2018-02-09T16:31:32.305Z,58.50
2018-02-09T16:34:01.315Z,53.37
2018-02-09T16:36:29.699Z,50.77
2018-02-09T16:38:58.193Z,56.10
2018-02-09T16:41:26.379Z,50.57
2018-02-09T16:43:54.664Z,58.20
2018-02-09T16:46:23.315Z,53.13
2018-02-09T16:48:51.532Z,57.97
2018-02-09T16:51:19.820Z,53.00
2018-02-09T16:53:50.131Z,55.73
2018-02-09T16:56:19.192Z,55.90
2018-02-09T16:58:47.466Z,49.93
2018-02-09T17:01:15.746Z,50.80
2018-02-09T17:03:44.027Z,52.80
2018-02-09T17:06:12.890Z,50.47
2018-02-09T17:08:41.093Z,49.53
2018-02-09T17:11:09.369Z,50.30
2018-02-09T17:13:37.791Z,50.03
2018-02-09T17:16:06.844Z,47.13
2018-02-09T17:18:35.155Z,48.93
2018-02-09T17:21:04.280Z,54.17
2018-02-09T17:23:32.536Z,51.00
2018-02-09T17:26:01.548Z,56.73
2018-02-09T17:28:29.799Z,49.60
2018-02-09T17:30:58.784Z,51.93
2018-02-09T17:33:28.440Z,52.20
2018-02-09T17:35:56.876Z,47.27
2018-02-09T17:38:25.164Z,48.40
2018-02-09T17:40:53.427Z,51.60
2018-02-09T17:43:22.632Z,49.30
2018-02-09T17:45:51.598Z,50.70
2018-02-09T17:48:19.805Z,51.87
2018-02-09T17:50:48.171Z,46.00
2018-02-09T17:53:16.392Z,50.50
2018-02-09T17:55:44.967Z,49.83
2018-02-09T17:58:13.235Z,46.17
2018-02-09T18:00:41.438Z,49.37
2018-02-09T18:03:09.665Z,51.10
2018-02-09T18:05:38.007Z,49.47
2018-02-09T18:08:06.252Z,50.40
2018-02-09T18:10:34.513Z,57.73
2018-02-09T18:13:02.885Z,48.03
2018-02-09T18:15:31.426Z,50.20
2018-02-09T18:17:59.716Z,52.73
2018-02-09T18:20:28.333Z,53.97
2018-02-09T18:22:56.992Z,48.90
2018-02-09T18:25:26.025Z,55.87
2018-02-09T18:27:55.285Z,49.77
2018-02-09T18:30:23.656Z,52.50
2018-02-09T18:32:52.088Z,53.00
2018-02-09T18:35:20.404Z,47.73
2018-02-09T18:37:48.696Z,53.40
2018-02-09T18:40:17.730Z,53.73
2018-02-09T18:42:46.063Z,59.30
2018-02-09T18:45:14.369Z,55.77
2018-02-09T18:47:42.615Z,53.17
2018-02-09T18:50:10.860Z,51.00
2018-02-09T18:52:39.089Z,51.90
2018-02-09T18:55:08.062Z,47.63
2018-02-09T18:57:36.362Z,51.60
2018-02-09T19:00:05.324Z,50.20
2018-02-09T19:02:33.551Z,45.00
2018-02-09T19:05:01.932Z,49.47
2018-02-09T19:07:30.148Z,46.33
2018-02-09T19:09:58.353Z,47.33
2018-02-09T19:12:27.388Z,45.83
2018-02-09T19:14:55.876Z,48.63
2018-02-09T19:17:24.133Z,49.90
2018-02-09T19:19:52.579Z,48.93
2018-02-09T19:22:20.882Z,47.90
2018-02-09T19:24:49.164Z,47.70
2018-02-09T19:27:17.489Z,49.60
2018-02-09T19:29:45.733Z,42.93
2018-02-09T19:32:13.965Z,53.07
2018-02-09T19:34:43.024Z,44.77
2018-02-09T19:37:11.254Z,44.33
2018-02-09T19:39:39.471Z,47.87
2018-02-09T19:42:08.036Z,47.07
2018-02-09T19:44:36.233Z,52.13
2018-02-09T19:47:04.456Z,44.57
2018-02-09T19:49:33.523Z,42.17
2018-02-09T19:52:01.727Z,51.37
2018-02-09T19:54:30.149Z,47.07
2018-02-09T19:56:58.382Z,45.07
2018-02-09T19:59:27.609Z,39.67
2018-02-09T20:01:55.800Z,43.77
2018-02-09T20:04:24.220Z,45.33
2018-02-09T20:06:53.279Z,44.80
2018-02-09T20:09:21.553Z,47.83
2018-02-09T20:11:49.836Z,48.27
2018-02-09T20:14:18.164Z,48.00
2018-02-09T20:16:46.961Z,45.37
2018-02-09T20:19:15.940Z,47.50
2018-02-09T20:21:45.149Z,54.87
2018-02-09T20:24:13.575Z,47.00
2018-02-09T20:26:41.980Z,46.80
2018-02-09T20:29:10.175Z,45.93
2018-02-09T20:31:38.428Z,49.97
2018-02-09T20:34:06.849Z,52.40
2018-02-09T20:36:35.124Z,48.27
2018-02-09T20:39:04.100Z,42.73
2018-02-09T20:41:32.330Z,39.37
2018-02-09T20:44:00.591Z,43.90
2018-02-09T20:46:28.816Z,39.57
2018-02-09T20:48:57.822Z,40.90
2018-02-09T20:51:26.048Z,40.93
2018-02-09T20:53:54.269Z,43.93
2018-02-09T20:56:22.544Z,43.00
2018-02-09T20:58:50.775Z,41.53
2018-02-09T21:01:20.268Z,45.90
2018-02-09T21:03:48.508Z,36.27
2018-02-09T21:06:16.753Z,40.00
2018-02-09T21:08:45.730Z,43.80
2018-02-09T21:11:13.975Z,43.53
2018-02-09T21:13:42.260Z,42.77
2018-02-09T21:16:10.575Z,37.67
2018-02-09T21:18:38.824Z,38.60
2018-02-09T21:21:07.230Z,44.13
2018-02-09T21:23:35.637Z,41.03
2018-02-09T21:26:04.039Z,46.07
2018-02-09T21:28:33.256Z,44.57
2018-02-09T21:31:01.544Z,43.07
2018-02-09T21:33:29.805Z,47.53
2018-02-09T21:35:58.499Z,46.93
2018-02-09T21:38:26.882Z,46.03
2018-02-09T21:40:55.172Z,46.73
2018-02-09T21:43:23.382Z,40.27
2018-02-09T21:45:51.686Z,46.77
2018-02-09T21:48:19.917Z,50.23
2018-02-09T21:50:49.074Z,45.37
2018-02-09T21:53:17.425Z,48.57
2018-02-09T21:55:45.692Z,43.53
2018-02-09T21:58:13.927Z,42.33
2018-02-09T22:00:42.141Z,43.63
2018-02-09T22:03:11.905Z,40.53
2018-02-09T22:05:40.153Z,40.30
2018-02-09T22:08:08.353Z,40.10
2018-02-09T22:10:36.600Z,40.67
2018-02-09T22:13:04.964Z,43.67
2018-02-09T22:15:33.960Z,40.50
2018-02-09T22:18:02.392Z,44.03
2018-02-09T22:20:30.629Z,46.37
2018-02-09T22:22:59.605Z,46.50
2018-02-09T22:25:28.307Z,44.20
2018-02-09T22:27:56.582Z,43.03
2018-02-09T22:30:25.576Z,42.73
2018-02-09T22:32:53.855Z,45.07
2018-02-09T22:35:22.064Z,47.20
2018-02-09T22:37:50.288Z,48.77
2018-02-09T22:40:18.532Z,46.67
2018-02-09T22:42:46.764Z,47.13
2018-02-09T22:45:15.028Z,40.83
2018-02-09T22:47:43.284Z,39.30
2018-02-09T22:50:12.163Z,42.13
2018-02-09T22:52:40.582Z,39.13
2018-02-09T22:55:09.036Z,45.53
2018-02-09T22:57:37.233Z,43.20
2018-02-09T23:00:05.428Z,38.23
2018-02-09T23:02:33.695Z,37.30
2018-02-09T23:05:04.574Z,38.87
2018-02-09T23:07:33.714Z,40.57
2018-02-09T23:10:02.163Z,43.90
2018-02-09T23:12:30.394Z,34.93
2018-02-09T23:14:58.672Z,40.13
2018-02-09T23:17:27.013Z,38.27
2018-02-09T23:19:55.212Z,37.70
2018-02-09T23:22:23.440Z,42.37
2018-02-09T23:24:51.929Z,37.47
2018-02-09T23:27:20.967Z,38.83
2018-02-09T23:29:49.328Z,37.20
2018-02-09T23:32:17.617Z,42.77
2018-02-09T23:34:45.990Z,36.50
2018-02-09T23:37:14.215Z,43.53
2018-02-09T23:39:44.306Z,44.40
2018-02-09T23:42:12.534Z,45.13
2018-02-09T23:44:41.097Z,37.67
2018-02-09T23:47:09.782Z,41.03
2018-02-09T23:49:37.988Z,35.67
2018-02-09T23:52:06.355Z,44.83
2018-02-09T23:54:34.681Z,43.67
2018-02-09T23:57:02.940Z,43.30
2018-02-09T23:59:31.520Z,42.07
